sensor_id;sensor_type;location;lat;lon;timestamp;pressure;altitude;pressure_sealevel;temperature;humidity
32197;BME280;18697;42.770;23.400;2023-10-13T00:01:59;96069.22;;;18.80;45.15
32197;BME280;18697;42.770;23.400;2023-10-13T00:04:25;96059.22;;;18.74;46.75
32197;BME280;18697;42.770;23.400;2023-10-13T00:06:59;96065.63;;;18.68;46.93
32197;BME280;18697;42.770;23.400;2023-10-13T00:09:27;96060.50;;;18.67;46.66
32197;BME280;18697;42.770;23.400;2023-10-13T00:12:00;96057.69;;;18.67;47.21
32197;BME280;18697;42.770;23.400;2023-10-13T00:14:27;96054.88;;;18.67;47.12
32197;BME280;18697;42.770;23.400;2023-10-13T00:17:04;96050.00;;;18.62;47.19
32197;BME280;18697;42.770;23.400;2023-10-13T00:22:22;96052.56;;;18.71;47.42
32197;BME280;18697;42.770;23.400;2023-10-13T00:24:47;96044.91;;;18.71;47.31
32197;BME280;18697;42.770;23.400;2023-10-13T00:27:19;96042.63;;;18.81;47.21
32197;BME280;18697;42.770;23.400;2023-10-13T00:30:07;96048.78;;;18.91;46.43
32197;BME280;18697;42.770;23.400;2023-10-13T00:32:58;96053.69;;;19.13;46.35
32197;BME280;18697;42.770;23.400;2023-10-13T00:35:26;96059.81;;;19.11;45.89
32197;BME280;18697;42.770;23.400;2023-10-13T00:38:01;96057.25;;;19.24;45.67
32197;BME280;18697;42.770;23.400;2023-10-13T00:40:32;96061.09;;;19.21;44.90
32197;BME280;18697;42.770;23.400;2023-10-13T00:42:58;96057.00;;;19.22;44.91
32197;BME280;18697;42.770;23.400;2023-10-13T00:46:01;96052.13;;;19.06;44.24
32197;BME280;18697;42.770;23.400;2023-10-13T00:48:37;96042.88;;;18.72;46.08
32197;BME280;18697;42.770;23.400;2023-10-13T00:51:17;96053.84;;;18.64;46.12
32197;BME280;18697;42.770;23.400;2023-10-13T00:53:57;96057.41;;;18.65;45.70
32197;BME280;18697;42.770;23.400;2023-10-13T00:56:25;96041.25;;;18.60;46.38
32197;BME280;18697;42.770;23.400;2023-10-13T00:58:57;96052.56;;;18.65;46.14
32197;BME280;18697;42.770;23.400;2023-10-13T01:01:28;96044.13;;;18.71;45.88
32197;BME280;18697;42.770;23.400;2023-10-13T01:03:58;96056.44;;;18.85;45.99
32197;BME280;18697;42.770;23.400;2023-10-13T01:06:28;96053.91;;;18.98;45.19
32197;BME280;18697;42.770;23.400;2023-10-13T01:11:37;96055.97;;;18.97;45.03
32197;BME280;18697;42.770;23.400;2023-10-13T01:14:02;96063.63;;;18.97;44.42
32197;BME280;18697;42.770;23.400;2023-10-13T01:16:29;96062.63;;;19.00;44.99
32197;BME280;18697;42.770;23.400;2023-10-13T01:18:55;96070.78;;;18.87;43.65
32197;BME280;18697;42.770;23.400;2023-10-13T01:21:25;96068.47;;;18.80;44.55
32197;BME280;18697;42.770;23.400;2023-10-13T01:23:53;96055.16;;;18.80;44.54
32197;BME280;18697;42.770;23.400;2023-10-13T01:26:19;96056.44;;;18.79;44.47
32197;BME280;18697;42.770;23.400;2023-10-13T01:28:52;96064.13;;;18.95;44.33
32197;BME280;18697;42.770;23.400;2023-10-13T01:31:21;96075.41;;;18.95;43.77
32197;BME280;18697;42.770;23.400;2023-10-13T01:33:52;96073.34;;;18.96;43.74
32197;BME280;18697;42.770;23.400;2023-10-13T01:36:20;96066.94;;;18.90;43.92
32197;BME280;18697;42.770;23.400;2023-10-13T01:38:46;96071.53;;;18.82;44.32
32197;BME280;18697;42.770;23.400;2023-10-13T01:41:12;96069.72;;;18.79;44.21
32197;BME280;18697;42.770;23.400;2023-10-13T01:43:39;96079.44;;;18.78;44.66
32197;BME280;18697;42.770;23.400;2023-10-13T01:46:04;96068.69;;;18.70;44.58
32197;BME280;18697;42.770;23.400;2023-10-13T01:48:29;96076.31;;;18.53;43.70
32197;BME280;18697;42.770;23.400;2023-10-13T01:50:57;96072.06;;;18.21;44.26
32197;BME280;18697;42.770;23.400;2023-10-13T01:53:25;96072.03;;;18.10;45.85
32197;BME280;18697;42.770;23.400;2023-10-13T01:55:54;96070.97;;;18.07;45.75
32197;BME280;18697;42.770;23.400;2023-10-13T01:58:22;96072.06;;;18.15;45.89
32197;BME280;18697;42.770;23.400;2023-10-13T02:00:48;96067.94;;;18.11;46.23
32197;BME280;18697;42.770;23.400;2023-10-13T02:03:14;96077.88;;;18.06;45.37
32197;BME280;18697;42.770;23.400;2023-10-13T02:05:50;96069.31;;;17.78;46.56
32197;BME280;18697;42.770;23.400;2023-10-13T02:08:22;96066.00;;;17.85;47.42
32197;BME280;18697;42.770;23.400;2023-10-13T02:10:53;96064.75;;;17.86;47.13
32197;BME280;18697;42.770;23.400;2023-10-13T02:13:20;96072.72;;;17.99;47.20
32197;BME280;18697;42.770;23.400;2023-10-13T02:15:47;96070.00;;;18.16;46.24
32197;BME280;18697;42.770;23.400;2023-10-13T02:18:17;96077.97;;;18.23;46.08
32197;BME280;18697;42.770;23.400;2023-10-13T02:20:51;96075.69;;;18.27;44.88
32197;BME280;18697;42.770;23.400;2023-10-13T02:23:21;96068.00;;;18.22;45.25
32197;BME280;18697;42.770;23.400;2023-10-13T02:25:46;96076.97;;;18.26;45.77
32197;BME280;18697;42.770;23.400;2023-10-13T02:28:13;96069.78;;;18.25;45.34
32197;BME280;18697;42.770;23.400;2023-10-13T02:30:47;96066.72;;;18.23;45.35
32197;BME280;18697;42.770;23.400;2023-10-13T02:33:16;96074.16;;;18.26;45.44
32197;BME280;18697;42.770;23.400;2023-10-13T02:35:55;96075.72;;;18.38;45.21
32197;BME280;18697;42.770;23.400;2023-10-13T02:38:22;96074.25;;;18.59;45.07
32197;BME280;18697;42.770;23.400;2023-10-13T02:41:03;96081.97;;;18.64;44.14
32197;BME280;18697;42.770;23.400;2023-10-13T02:43:35;96084.28;;;18.66;43.78
32197;BME280;18697;42.770;23.400;2023-10-13T02:46:01;96069.72;;;18.79;43.93
32197;BME280;18697;42.770;23.400;2023-10-13T02:48:27;96063.06;;;18.70;43.44
32197;BME280;18697;42.770;23.400;2023-10-13T02:50:58;96058.72;;;18.69;43.56
32197;BME280;18697;42.770;23.400;2023-10-13T02:53:28;96069.19;;;18.63;43.54
32197;BME280;18697;42.770;23.400;2023-10-13T02:55:55;96064.28;;;18.53;43.54
32197;BME280;18697;42.770;23.400;2023-10-13T02:58:29;96070.91;;;18.50;44.21
32197;BME280;18697;42.770;23.400;2023-10-13T03:01:06;96069.66;;;18.56;44.12
32197;BME280;18697;42.770;23.400;2023-10-13T03:03:47;96076.06;;;18.57;43.72
32197;BME280;18697;42.770;23.400;2023-10-13T03:06:19;96086.03;;;18.52;43.95
32197;BME280;18697;42.770;23.400;2023-10-13T03:08:47;96088.75;;;18.35;43.62
32197;BME280;18697;42.770;23.400;2023-10-13T03:11:13;96088.78;;;18.41;44.17
32197;BME280;18697;42.770;23.400;2023-10-13T03:13:40;96089.47;;;18.25;43.67
32197;BME280;18697;42.770;23.400;2023-10-13T03:16:15;96091.00;;;18.20;44.49
32197;BME280;18697;42.770;23.400;2023-10-13T03:18:43;96080.75;;;18.17;44.31
32197;BME280;18697;42.770;23.400;2023-10-13T03:21:17;96085.53;;;18.05;43.74
32197;BME280;18697;42.770;23.400;2023-10-13T03:24:02;96087.97;;;17.50;42.72
32197;BME280;18697;42.770;23.400;2023-10-13T03:26:32;96082.78;;;16.80;47.16
32197;BME280;18697;42.770;23.400;2023-10-13T03:29:02;96070.50;;;16.31;49.75
32197;BME280;18697;42.770;23.400;2023-10-13T03:31:30;96083.19;;;16.26;49.84
32197;BME280;18697;42.770;23.400;2023-10-13T03:33:55;96083.91;;;16.47;49.64
32197;BME280;18697;42.770;23.400;2023-10-13T03:36:29;96077.25;;;16.65;49.17
32197;BME280;18697;42.770;23.400;2023-10-13T03:39:12;96087.44;;;16.88;48.70
32197;BME280;18697;42.770;23.400;2023-10-13T03:41:39;96083.00;;;17.02;47.82
32197;BME280;18697;42.770;23.400;2023-10-13T03:44:05;96072.28;;;17.00;46.21
32197;BME280;18697;42.770;23.400;2023-10-13T03:46:37;96078.31;;;16.93;46.37
32197;BME280;18697;42.770;23.400;2023-10-13T03:49:06;96069.53;;;16.60;47.79
32197;BME280;18697;42.770;23.400;2023-10-13T03:51:31;96066.16;;;16.30;49.90
32197;BME280;18697;42.770;23.400;2023-10-13T03:53:57;96059.56;;;16.13;50.25
32197;BME280;18697;42.770;23.400;2023-10-13T03:56:28;96071.47;;;16.07;50.36
32197;BME280;18697;42.770;23.400;2023-10-13T03:59:04;96070.56;;;16.16;49.82
32197;BME280;18697;42.770;23.400;2023-10-13T04:01:35;96066.63;;;16.28;49.71
32197;BME280;18697;42.770;23.400;2023-10-13T04:04:11;96076.75;;;16.46;48.67
32197;BME280;18697;42.770;23.400;2023-10-13T04:06:43;96058.25;;;16.54;47.60
32197;BME280;18697;42.770;23.400;2023-10-13T04:09:16;96068.75;;;16.59;48.53
32197;BME280;18697;42.770;23.400;2023-10-13T04:12:04;96071.44;;;16.68;48.78
32197;BME280;18697;42.770;23.400;2023-10-13T04:14:31;96064.63;;;17.01;50.14
32197;BME280;18697;42.770;23.400;2023-10-13T04:17:15;96065.16;;;17.36;50.70
32197;BME280;18697;42.770;23.400;2023-10-13T04:19:48;96064.78;;;17.55;49.61
32197;BME280;18697;42.770;23.400;2023-10-13T04:22:32;96069.59;;;17.80;49.28
32197;BME280;18697;42.770;23.400;2023-10-13T04:25:13;96074.00;;;17.98;48.98
32197;BME280;18697;42.770;23.400;2023-10-13T04:27:59;96067.66;;;18.09;48.07
32197;BME280;18697;42.770;23.400;2023-10-13T04:30:50;96076.44;;;18.27;48.10
32197;BME280;18697;42.770;23.400;2023-10-13T04:33:18;96072.13;;;18.32;47.65
32197;BME280;18697;42.770;23.400;2023-10-13T04:36:13;96081.34;;;18.38;47.56
32197;BME280;18697;42.770;23.400;2023-10-13T04:38:45;96076.25;;;18.42;47.46
32197;BME280;18697;42.770;23.400;2023-10-13T04:41:26;96083.44;;;18.43;46.54
32197;BME280;18697;42.770;23.400;2023-10-13T04:44:12;96082.41;;;18.46;46.44
32197;BME280;18697;42.770;23.400;2023-10-13T04:46:58;96081.66;;;18.46;46.54
32197;BME280;18697;42.770;23.400;2023-10-13T04:49:24;96076.78;;;18.46;46.58
32197;BME280;18697;42.770;23.400;2023-10-13T04:51:57;96092.88;;;18.40;45.88
32197;BME280;18697;42.770;23.400;2023-10-13T04:54:39;96086.03;;;18.52;46.11
32197;BME280;18697;42.770;23.400;2023-10-13T04:57:15;96094.44;;;18.58;46.02
32197;BME280;18697;42.770;23.400;2023-10-13T05:00:19;96100.88;;;18.64;45.20
32197;BME280;18697;42.770;23.400;2023-10-13T05:02:46;96103.97;;;18.66;45.09
32197;BME280;18697;42.770;23.400;2023-10-13T05:05:27;96117.78;;;18.69;45.08
32197;BME280;18697;42.770;23.400;2023-10-13T05:08:11;96110.88;;;18.70;44.98
32197;BME280;18697;42.770;23.400;2023-10-13T05:10:55;96113.69;;;18.70;45.10
32197;BME280;18697;42.770;23.400;2023-10-13T05:13:39;96119.78;;;18.52;43.48
32197;BME280;18697;42.770;23.400;2023-10-13T05:16:23;96120.91;;;17.49;46.69
32197;BME280;18697;42.770;23.400;2023-10-13T05:19:06;96131.88;;;17.47;47.28
32197;BME280;18697;42.770;23.400;2023-10-13T05:21:50;96138.78;;;17.52;47.80
32197;BME280;18697;42.770;23.400;2023-10-13T05:24:34;96138.50;;;17.76;47.49
32197;BME280;18697;42.770;23.400;2023-10-13T05:27:18;96135.94;;;17.72;46.88
32197;BME280;18697;42.770;23.400;2023-10-13T05:30:02;96144.31;;;17.66;47.54
32197;BME280;18697;42.770;23.400;2023-10-13T05:32:46;96145.44;;;17.80;47.37
32197;BME280;18697;42.770;23.400;2023-10-13T05:35:31;96148.34;;;17.97;47.13
32197;BME280;18697;42.770;23.400;2023-10-13T05:38:15;96149.72;;;18.13;46.58
32197;BME280;18697;42.770;23.400;2023-10-13T05:41:00;96148.31;;;18.34;46.60
32197;BME280;18697;42.770;23.400;2023-10-13T05:43:45;96159.41;;;18.54;45.90
32197;BME280;18697;42.770;23.400;2023-10-13T05:46:29;96155.88;;;18.65;45.86
32197;BME280;18697;42.770;23.400;2023-10-13T05:49:08;96156.22;;;18.84;45.69
32197;BME280;18697;42.770;23.400;2023-10-13T05:51:36;96158.06;;;19.03;44.80
32197;BME280;18697;42.770;23.400;2023-10-13T05:54:20;96157.88;;;19.29;44.20
32197;BME280;18697;42.770;23.400;2023-10-13T05:57:04;96153.75;;;19.36;44.19
32197;BME280;18697;42.770;23.400;2023-10-13T05:59:48;96156.13;;;19.60;44.07
32197;BME280;18697;42.770;23.400;2023-10-13T06:02:32;96161.50;;;19.80;43.31
32197;BME280;18697;42.770;23.400;2023-10-13T06:05:16;96160.75;;;19.96;43.15
32197;BME280;18697;42.770;23.400;2023-10-13T06:08:00;96151.50;;;19.90;43.03
32197;BME280;18697;42.770;23.400;2023-10-13T06:10:45;96159.47;;;19.92;43.30
32197;BME280;18697;42.770;23.400;2023-10-13T06:13:29;96161.50;;;19.91;43.69
32197;BME280;18697;42.770;23.400;2023-10-13T06:16:15;96171.19;;;19.46;45.28
32197;BME280;18697;42.770;23.400;2023-10-13T06:19:00;96172.66;;;19.02;46.27
32197;BME280;18697;42.770;23.400;2023-10-13T06:21:45;96182.78;;;17.60;50.13
32197;BME280;18697;42.770;23.400;2023-10-13T06:24:30;96176.81;;;16.75;53.46
32197;BME280;18697;42.770;23.400;2023-10-13T06:27:16;96179.81;;;16.31;54.81
32197;BME280;18697;42.770;23.400;2023-10-13T06:30:01;96182.59;;;16.51;54.75
32197;BME280;18697;42.770;23.400;2023-10-13T06:32:27;96179.69;;;16.81;54.39
32197;BME280;18697;42.770;23.400;2023-10-13T06:34:56;96178.91;;;16.80;54.08
32197;BME280;18697;42.770;23.400;2023-10-13T06:37:32;96178.53;;;16.52;55.17
32197;BME280;18697;42.770;23.400;2023-10-13T06:40:00;96180.91;;;16.39;57.15
32197;BME280;18697;42.770;23.400;2023-10-13T06:42:31;96184.16;;;16.52;56.34
32197;BME280;18697;42.770;23.400;2023-10-13T06:45:00;96184.78;;;17.02;54.67
32197;BME280;18697;42.770;23.400;2023-10-13T06:47:36;96182.56;;;17.12;55.18
32197;BME280;18697;42.770;23.400;2023-10-13T06:50:08;96183.78;;;17.31;55.05
32197;BME280;18697;42.770;23.400;2023-10-13T06:52:41;96174.53;;;17.25;54.25
32197;BME280;18697;42.770;23.400;2023-10-13T06:55:07;96163.88;;;17.03;54.87
32197;BME280;18697;42.770;23.400;2023-10-13T06:57:35;96168.81;;;17.14;55.54
32197;BME280;18697;42.770;23.400;2023-10-13T07:00:00;96161.44;;;17.17;55.15
32197;BME280;18697;42.770;23.400;2023-10-13T07:02:33;96165.13;;;17.28;55.02
32197;BME280;18697;42.770;23.400;2023-10-13T07:04:59;96165.16;;;17.91;53.36
32197;BME280;18697;42.770;23.400;2023-10-13T07:07:38;96168.69;;;17.81;53.51
32197;BME280;18697;42.770;23.400;2023-10-13T07:10:08;96161.75;;;18.13;52.36
32197;BME280;18697;42.770;23.400;2023-10-13T07:12:33;96171.44;;;18.12;53.04
32197;BME280;18697;42.770;23.400;2023-10-13T07:14:59;96171.81;;;18.79;50.92
32197;BME280;18697;42.770;23.400;2023-10-13T07:17:36;96167.34;;;19.21;49.97
32197;BME280;18697;42.770;23.400;2023-10-13T07:20:05;96169.63;;;19.33;49.96
32197;BME280;18697;42.770;23.400;2023-10-13T07:22:41;96165.78;;;19.20;50.17
32197;BME280;18697;42.770;23.400;2023-10-13T07:25:20;96168.44;;;19.68;49.94
32197;BME280;18697;42.770;23.400;2023-10-13T07:27:49;96155.63;;;19.89;49.80
32197;BME280;18697;42.770;23.400;2023-10-13T07:30:14;96152.00;;;20.06;48.47
32197;BME280;18697;42.770;23.400;2023-10-13T07:32:45;96154.28;;;20.13;48.26
32197;BME280;18697;42.770;23.400;2023-10-13T07:35:12;96149.13;;;20.39;48.31
32197;BME280;18697;42.770;23.400;2023-10-13T07:37:37;96143.13;;;20.76;47.49
32197;BME280;18697;42.770;23.400;2023-10-13T07:40:09;96143.19;;;20.59;46.77
32197;BME280;18697;42.770;23.400;2023-10-13T07:43:01;96144.50;;;20.30;48.05
32197;BME280;18697;42.770;23.400;2023-10-13T07:45:29;96130.25;;;19.95;48.43
32197;BME280;18697;42.770;23.400;2023-10-13T07:48:05;96151.94;;;20.33;47.44
32197;BME280;18697;42.770;23.400;2023-10-13T07:51:05;96147.38;;;20.94;46.52
32197;BME280;18697;42.770;23.400;2023-10-13T07:53:35;96143.34;;;21.30;46.42
32197;BME280;18697;42.770;23.400;2023-10-13T07:56:04;96142.00;;;21.73;45.38
32197;BME280;18697;42.770;23.400;2023-10-13T07:58:39;96136.06;;;21.76;44.50
32197;BME280;18697;42.770;23.400;2023-10-13T08:01:23;96131.16;;;21.47;45.22
32197;BME280;18697;42.770;23.400;2023-10-13T08:03:50;96129.19;;;21.66;45.85
32197;BME280;18697;42.770;23.400;2023-10-13T08:06:29;96131.03;;;21.93;45.31
32197;BME280;18697;42.770;23.400;2023-10-13T08:08:55;96126.47;;;22.15;44.21
32197;BME280;18697;42.770;23.400;2023-10-13T08:11:30;96125.22;;;22.35;43.65
32197;BME280;18697;42.770;23.400;2023-10-13T08:14:04;96126.00;;;21.51;44.35
32197;BME280;18697;42.770;23.400;2023-10-13T08:16:49;96125.09;;;21.31;45.46
32197;BME280;18697;42.770;23.400;2023-10-13T08:19:19;96130.44;;;21.41;44.81
32197;BME280;18697;42.770;23.400;2023-10-13T08:21:46;96131.59;;;21.56;46.21
32197;BME280;18697;42.770;23.400;2023-10-13T08:24:17;96139.69;;;21.71;45.16
32197;BME280;18697;42.770;23.400;2023-10-13T08:27:02;96143.38;;;21.90;44.27
32197;BME280;18697;42.770;23.400;2023-10-13T08:29:40;96127.50;;;22.17;44.45
32197;BME280;18697;42.770;23.400;2023-10-13T08:32:24;96118.03;;;22.58;44.43
32197;BME280;18697;42.770;23.400;2023-10-13T08:34:56;96117.34;;;22.95;42.97
32197;BME280;18697;42.770;23.400;2023-10-13T08:37:30;96131.19;;;22.99;42.04
32197;BME280;18697;42.770;23.400;2023-10-13T08:39:59;96129.19;;;22.93;42.10
32197;BME280;18697;42.770;23.400;2023-10-13T08:42:35;96128.19;;;22.91;41.87
32197;BME280;18697;42.770;23.400;2023-10-13T08:45:13;96128.72;;;22.89;42.93
32197;BME280;18697;42.770;23.400;2023-10-13T08:47:48;96125.53;;;22.74;42.14
32197;BME280;18697;42.770;23.400;2023-10-13T08:50:36;96118.81;;;22.77;42.29
32197;BME280;18697;42.770;23.400;2023-10-13T08:53:18;96123.47;;;22.75;42.60
32197;BME280;18697;42.770;23.400;2023-10-13T08:56:08;96116.88;;;22.91;43.13
32197;BME280;18697;42.770;23.400;2023-10-13T09:01:34;96108.44;;;23.74;41.84
32197;BME280;18697;42.770;23.400;2023-10-13T09:04:00;96105.34;;;23.58;40.41
32197;BME280;18697;42.770;23.400;2023-10-13T09:06:48;96105.72;;;23.81;41.40
32197;BME280;18697;42.770;23.400;2023-10-13T09:14:43;96111.59;;;24.55;40.00
32197;BME280;18697;42.770;23.400;2023-10-13T09:17:22;96106.78;;;23.78;40.59
32197;BME280;18697;42.770;23.400;2023-10-13T09:20:08;96096.84;;;24.17;40.39
32197;BME280;18697;42.770;23.400;2023-10-13T09:22:57;96094.88;;;24.65;38.74
32197;BME280;18697;42.770;23.400;2023-10-13T09:25:33;96087.22;;;24.73;39.53
32197;BME280;18697;42.770;23.400;2023-10-13T09:28:03;96095.38;;;25.16;38.38
32197;BME280;18697;42.770;23.400;2023-10-13T09:30:45;96090.56;;;25.45;38.48
32197;BME280;18697;42.770;23.400;2023-10-13T09:33:11;96097.25;;;25.34;37.35
32197;BME280;18697;42.770;23.400;2023-10-13T09:35:46;96078.34;;;25.37;37.66
32197;BME280;18697;42.770;23.400;2023-10-13T09:38:17;96081.72;;;25.35;37.62
32197;BME280;18697;42.770;23.400;2023-10-13T09:40:43;96079.34;;;25.26;37.70
32197;BME280;18697;42.770;23.400;2023-10-13T09:43:19;96084.13;;;25.10;38.17
32197;BME280;18697;42.770;23.400;2023-10-13T09:45:47;96069.94;;;24.84;38.82
32197;BME280;18697;42.770;23.400;2023-10-13T09:48:34;96071.28;;;24.83;38.36
32197;BME280;18697;42.770;23.400;2023-10-13T09:51:04;96070.75;;;24.71;37.92
32197;BME280;18697;42.770;23.400;2023-10-13T09:53:35;96069.47;;;24.33;38.28
32197;BME280;18697;42.770;23.400;2023-10-13T09:56:14;96055.78;;;24.57;39.42
32197;BME280;18697;42.770;23.400;2023-10-13T09:58:54;96050.50;;;25.01;39.47
32197;BME280;18697;42.770;23.400;2023-10-13T10:01:24;96056.56;;;25.39;38.25
32197;BME280;18697;42.770;23.400;2023-10-13T10:04:10;96057.03;;;25.64;38.00
32197;BME280;18697;42.770;23.400;2023-10-13T10:06:53;96056.94;;;25.98;37.30
32197;BME280;18697;42.770;23.400;2023-10-13T10:09:26;96055.75;;;26.22;37.32
32197;BME280;18697;42.770;23.400;2023-10-13T10:12:30;96052.31;;;26.44;36.52
32197;BME280;18697;42.770;23.400;2023-10-13T10:15:27;96050.47;;;26.55;35.75
32197;BME280;18697;42.770;23.400;2023-10-13T10:17:56;96050.19;;;26.73;35.10
32197;BME280;18697;42.770;23.400;2023-10-13T10:20:36;96045.56;;;26.99;35.26
32197;BME280;18697;42.770;23.400;2023-10-13T10:23:08;96052.53;;;26.46;34.89
32197;BME280;18697;42.770;23.400;2023-10-13T10:25:54;96042.75;;;26.63;35.36
32197;BME280;18697;42.770;23.400;2023-10-13T10:28:37;96035.19;;;26.80;35.37
32197;BME280;18697;42.770;23.400;2023-10-13T10:31:06;96034.50;;;26.95;35.42
32197;BME280;18697;42.770;23.400;2023-10-13T10:33:42;96030.06;;;27.30;35.20
32197;BME280;18697;42.770;23.400;2023-10-13T10:36:08;96028.56;;;27.52;35.00
32197;BME280;18697;42.770;23.400;2023-10-13T10:38:54;96029.34;;;27.60;34.12
32197;BME280;18697;42.770;23.400;2023-10-13T10:41:28;96027.44;;;27.63;33.49
32197;BME280;18697;42.770;23.400;2023-10-13T10:44:12;96037.16;;;27.67;34.03
32197;BME280;18697;42.770;23.400;2023-10-13T10:46:42;96028.41;;;27.65;33.61
32197;BME280;18697;42.770;23.400;2023-10-13T10:49:18;96021.00;;;27.77;33.42
32197;BME280;18697;42.770;23.400;2023-10-13T10:51:58;96021.56;;;27.84;32.76
32197;BME280;18697;42.770;23.400;2023-10-13T10:54:26;96026.84;;;27.41;32.91
32197;BME280;18697;42.770;23.400;2023-10-13T10:56:57;96013.34;;;27.49;33.17
32197;BME280;18697;42.770;23.400;2023-10-13T10:59:36;96012.44;;;27.70;33.58
32197;BME280;18697;42.770;23.400;2023-10-13T11:02:02;96004.81;;;27.80;33.23
32197;BME280;18697;42.770;23.400;2023-10-13T11:04:28;96006.53;;;27.75;33.10
32197;BME280;18697;42.770;23.400;2023-10-13T11:06:59;96008.78;;;27.46;32.85
32197;BME280;18697;42.770;23.400;2023-10-13T11:09:29;96005.88;;;27.16;33.73
32197;BME280;18697;42.770;23.400;2023-10-13T11:12:09;96001.72;;;27.17;33.33
32197;BME280;18697;42.770;23.400;2023-10-13T11:14:44;95989.16;;;27.12;34.44
32197;BME280;18697;42.770;23.400;2023-10-13T11:17:21;95974.94;;;27.28;34.69
32197;BME280;18697;42.770;23.400;2023-10-13T11:20:13;95986.56;;;27.60;33.17
32197;BME280;18697;42.770;23.400;2023-10-13T11:22:46;95985.78;;;27.90;34.13
32197;BME280;18697;42.770;23.400;2023-10-13T11:25:26;95990.91;;;28.14;31.84
32197;BME280;18697;42.770;23.400;2023-10-13T11:27:58;95986.16;;;27.94;32.01
32197;BME280;18697;42.770;23.400;2023-10-13T11:30:26;95981.38;;;27.59;32.21
32197;BME280;18697;42.770;23.400;2023-10-13T11:33:08;95977.03;;;27.88;31.43
32197;BME280;18697;42.770;23.400;2023-10-13T11:35:42;95969.78;;;27.95;32.12
32197;BME280;18697;42.770;23.400;2023-10-13T11:38:15;95977.59;;;27.87;31.54
32197;BME280;18697;42.770;23.400;2023-10-13T11:40:50;95974.75;;;27.87;31.59
32197;BME280;18697;42.770;23.400;2023-10-13T11:43:35;95971.66;;;28.15;32.77
32197;BME280;18697;42.770;23.400;2023-10-13T11:49:07;95969.56;;;28.23;31.22
32197;BME280;18697;42.770;23.400;2023-10-13T11:51:53;95966.00;;;27.85;31.17
32197;BME280;18697;42.770;23.400;2023-10-13T11:54:34;95961.00;;;28.16;29.33
32197;BME280;18697;42.770;23.400;2023-10-13T11:57:01;95953.69;;;28.45;31.50
32197;BME280;18697;42.770;23.400;2023-10-13T11:59:27;95956.09;;;28.01;29.48
32197;BME280;18697;42.770;23.400;2023-10-13T12:01:53;95952.19;;;28.36;30.10
32197;BME280;18697;42.770;23.400;2023-10-13T12:04:38;95952.06;;;28.67;29.56
32197;BME280;18697;42.770;23.400;2023-10-13T12:07:17;95950.88;;;28.85;29.28
32197;BME280;18697;42.770;23.400;2023-10-13T12:09:46;95958.66;;;28.92;28.99
32197;BME280;18697;42.770;23.400;2023-10-13T12:12:27;95957.91;;;28.36;28.88
32197;BME280;18697;42.770;23.400;2023-10-13T12:14:53;95956.56;;;28.37;28.57
32197;BME280;18697;42.770;23.400;2023-10-13T12:17:27;95962.94;;;27.98;28.38
32197;BME280;18697;42.770;23.400;2023-10-13T12:20:00;95950.53;;;28.18;30.28
32197;BME280;18697;42.770;23.400;2023-10-13T12:22:25;95953.03;;;27.99;27.99
32197;BME280;18697;42.770;23.400;2023-10-13T12:24:56;95949.88;;;28.42;27.86
32197;BME280;18697;42.770;23.400;2023-10-13T12:27:22;95946.69;;;28.31;28.03
32197;BME280;18697;42.770;23.400;2023-10-13T12:30:00;95945.50;;;28.41;27.27
32197;BME280;18697;42.770;23.400;2023-10-13T12:32:33;95951.72;;;28.63;26.74
32197;BME280;18697;42.770;23.400;2023-10-13T12:34:59;95941.63;;;28.62;26.74
32197;BME280;18697;42.770;23.400;2023-10-13T12:37:41;95945.00;;;28.20;27.47
32197;BME280;18697;42.770;23.400;2023-10-13T12:40:08;95948.63;;;28.21;29.13
32197;BME280;18697;42.770;23.400;2023-10-13T12:42:52;95943.75;;;28.54;28.38
32197;BME280;18697;42.770;23.400;2023-10-13T12:45:41;95927.44;;;28.87;28.46
32197;BME280;18697;42.770;23.400;2023-10-13T12:48:26;95935.78;;;29.17;28.13
32197;BME280;18697;42.770;23.400;2023-10-13T12:51:10;95941.00;;;29.36;26.61
32197;BME280;18697;42.770;23.400;2023-10-13T12:53:55;95937.97;;;29.34;26.56
32197;BME280;18697;42.770;23.400;2023-10-13T12:56:21;95936.41;;;29.65;27.99
32197;BME280;18697;42.770;23.400;2023-10-13T12:58:53;95929.25;;;29.74;26.29
32197;BME280;18697;42.770;23.400;2023-10-13T13:01:23;95931.78;;;29.87;28.35
32197;BME280;18697;42.770;23.400;2023-10-13T13:03:51;95943.47;;;30.06;25.03
32197;BME280;18697;42.770;23.400;2023-10-13T13:06:22;95948.78;;;30.10;26.35
32197;BME280;18697;42.770;23.400;2023-10-13T13:08:55;95944.56;;;30.11;25.20
32197;BME280;18697;42.770;23.400;2023-10-13T13:11:20;95944.06;;;30.05;25.81
32197;BME280;18697;42.770;23.400;2023-10-13T13:13:47;95940.00;;;30.08;26.56
32197;BME280;18697;42.770;23.400;2023-10-13T13:16:13;95935.00;;;29.91;27.29
32197;BME280;18697;42.770;23.400;2023-10-13T13:18:39;95941.94;;;29.63;26.59
32197;BME280;18697;42.770;23.400;2023-10-13T13:21:05;95948.03;;;29.42;25.61
32197;BME280;18697;42.770;23.400;2023-10-13T13:23:37;95946.88;;;29.13;25.99
32197;BME280;18697;42.770;23.400;2023-10-13T13:26:02;95943.03;;;28.93;26.36
32197;BME280;18697;42.770;23.400;2023-10-13T13:28:30;95939.75;;;28.57;26.96
32197;BME280;18697;42.770;23.400;2023-10-13T13:31:02;95930.28;;;28.39;27.33
32197;BME280;18697;42.770;23.400;2023-10-13T13:33:33;95938.47;;;28.42;27.21
32197;BME280;18697;42.770;23.400;2023-10-13T13:35:58;95934.25;;;28.43;27.57
32197;BME280;18697;42.770;23.400;2023-10-13T13:38:24;95925.78;;;28.13;28.00
32197;BME280;18697;42.770;23.400;2023-10-13T13:40:55;95918.84;;;27.68;28.23
32197;BME280;18697;42.770;23.400;2023-10-13T13:43:24;95917.09;;;27.88;28.99
32197;BME280;18697;42.770;23.400;2023-10-13T13:46:22;95923.59;;;27.73;28.27